Waco, Nebraska
Current Conditions -  °F | °C
As of 12:35 PM on Sunday 21 Dec 2014 (Local Time) from KJYR Reporting Station
Haze Haze  
Wind Chill: 31°   Ceiling: 300
Heat Index: 39°   Visibility: 2.5mi
Dew Point: 37°   Wind: 14mph
Humidity: 93%   Direction: 200°SSW
Pressure: 29.74"   Gusts: NA
Location:  40.9°N, 97.46°W
Report Text: KJYR 211835Z AUTO 20012KT 2 1/2SM BR OVC003 04/03 A2974 RMK AO2
Loading
Personal Weather Stations






























Interactive Weather Map New forecast layout! Learn more

10-Day Weather Forecast

Advertisements
Track Severe Weather on mobile